Terminal Aerodrome Forecast
Issued by NWS Indianapolis, IN

Home | Current Version | Previous Version | Text Only | Print | Product List | Glossary On
Versions: 1 2 3 4 5 6 7 8 9 10 11 12 13 14 15 16 17 18 19 20 21 22 23 24
000
FTUS43 KIND 252300
TAFIND
TAF
KIND 252322Z 2600/2706 07014G21KT P6SM BKN008 OVC030
      TEMPO 2600/2603 4SM -RA BR
     FM260400 05014G21KT P6SM BKN015 OVC040
     FM260600 05013KT P6SM SCT015 OVC040
     FM260900 03011KT P6SM SCT040 SCT080 BKN250
     FM261600 02013KT P6SM SCT040 SCT250=

USA.gov is the U.S. government's official web portal to all federal, state and local government web resources and services.